createdAt,value
2022-10-18T00:01:06.411Z,4.10
2022-10-18T00:03:52.052Z,4.15
2022-10-18T00:06:41.178Z,3.97
2022-10-18T00:09:28.966Z,3.72
2022-10-18T00:12:14.364Z,4.20
2022-10-18T00:15:00.099Z,4.25
2022-10-18T00:17:45.574Z,4.47
2022-10-18T00:20:31.457Z,4.20
2022-10-18T00:23:17.111Z,4.43
2022-10-18T00:26:11.576Z,4.35
2022-10-18T00:29:01.599Z,4.30
2022-10-18T00:31:47.194Z,4.55
2022-10-18T00:34:32.693Z,4.45
2022-10-18T00:37:18.560Z,4.15
2022-10-18T00:40:05.297Z,4.57
2022-10-18T00:42:50.892Z,4.13
2022-10-18T00:45:36.502Z,4.25
2022-10-18T00:48:22.402Z,4.00
2022-10-18T00:51:07.956Z,4.32
2022-10-18T00:53:53.614Z,4.32
2022-10-18T00:56:39.572Z,4.13
2022-10-18T00:59:26.115Z,3.95
2022-10-18T01:02:15.018Z,4.38
2022-10-18T01:05:00.347Z,4.53
2022-10-18T01:07:57.795Z,4.05
2022-10-18T01:11:07.420Z,3.92
2022-10-18T01:14:00.439Z,3.83
2022-10-18T01:16:59.697Z,4.00
2022-10-18T01:20:09.228Z,4.50
2022-10-18T01:23:08.123Z,4.80
2022-10-18T01:26:20.548Z,3.80
2022-10-18T01:29:17.832Z,3.85
2022-10-18T01:32:27.765Z,4.22
2022-10-18T01:35:21.914Z,3.97
2022-10-18T01:38:11.637Z,3.65
2022-10-18T01:40:58.116Z,3.47
2022-10-18T01:43:46.317Z,3.75
2022-10-18T01:46:34.198Z,3.60
2022-10-18T01:49:19.568Z,3.78
2022-10-18T01:52:05.803Z,3.60
2022-10-18T01:54:51.504Z,3.28
2022-10-18T01:57:46.553Z,3.45
2022-10-18T02:03:28.234Z,3.30
2022-10-18T02:06:23.153Z,3.30
2022-10-18T02:09:14.758Z,3.28
2022-10-18T02:12:01.993Z,3.08
2022-10-18T02:14:49.768Z,3.40
2022-10-18T02:17:35.686Z,3.00
2022-10-18T02:20:24.188Z,3.33
2022-10-18T02:23:11.928Z,3.50
2022-10-18T02:25:57.718Z,3.90
2022-10-18T02:28:43.765Z,3.58
2022-10-18T02:31:42.174Z,3.80
2022-10-18T02:34:46.305Z,3.90
2022-10-18T02:37:36.922Z,4.05
2022-10-18T02:40:22.380Z,3.63
2022-10-18T02:43:07.784Z,4.18
2022-10-18T02:45:53.439Z,3.95
2022-10-18T02:48:39.114Z,3.55
2022-10-18T02:51:25.265Z,3.40
2022-10-18T02:54:10.725Z,3.75
2022-10-18T02:56:56.518Z,3.80
2022-10-18T02:59:42.010Z,3.95
2022-10-18T03:02:27.572Z,3.80
2022-10-18T03:05:12.900Z,3.72
2022-10-18T03:07:58.182Z,3.40
2022-10-18T03:10:47.168Z,3.58
2022-10-18T03:13:34.246Z,3.78
2022-10-18T03:16:19.817Z,3.40
2022-10-18T03:19:05.549Z,3.90
2022-10-18T03:21:51.095Z,3.60
2022-10-18T03:24:36.726Z,3.58
2022-10-18T03:27:22.160Z,3.63
2022-10-18T03:30:08.640Z,3.60
2022-10-18T03:32:56.901Z,3.50
2022-10-18T03:35:42.560Z,3.65
2022-10-18T03:38:28.133Z,3.35
2022-10-18T03:41:13.731Z,3.42
2022-10-18T03:43:59.482Z,3.95
2022-10-18T03:46:45.193Z,4.28
2022-10-18T03:49:30.878Z,3.63
2022-10-18T03:52:16.355Z,3.60
2022-10-18T03:55:02.020Z,3.67
2022-10-18T03:57:47.487Z,3.72
2022-10-18T04:00:33.392Z,3.72
2022-10-18T04:03:20.049Z,4.00
2022-10-18T04:06:05.432Z,3.72
2022-10-18T04:08:50.969Z,3.85
2022-10-18T04:11:36.819Z,3.45
2022-10-18T04:14:22.379Z,3.65
2022-10-18T04:17:07.754Z,3.35
2022-10-18T04:19:53.301Z,4.10
2022-10-18T04:22:38.679Z,3.80
2022-10-18T04:25:25.014Z,3.42
2022-10-18T04:28:10.306Z,3.60
2022-10-18T04:30:56.009Z,3.60
2022-10-18T04:33:41.704Z,9.02
2022-10-18T04:36:27.314Z,3.72
2022-10-18T04:39:12.948Z,4.60
2022-10-18T04:41:58.375Z,4.78
2022-10-18T04:44:44.255Z,3.25
2022-10-18T04:47:30.043Z,3.63
2022-10-18T04:50:15.620Z,3.13
2022-10-18T04:53:01.008Z,3.00
2022-10-18T04:55:48.925Z,3.35
2022-10-18T04:58:34.532Z,3.08
2022-10-18T05:01:20.073Z,3.20
2022-10-18T05:04:05.864Z,3.42
2022-10-18T05:06:51.447Z,3.55
2022-10-18T05:09:36.997Z,4.85
2022-10-18T05:12:22.470Z,3.70
2022-10-18T05:15:08.048Z,3.28
2022-10-18T05:17:53.719Z,3.65
2022-10-18T05:20:39.440Z,3.42
2022-10-18T05:23:25.592Z,3.50
2022-10-18T05:26:11.506Z,3.47
2022-10-18T05:28:56.789Z,3.72
2022-10-18T05:31:42.578Z,3.30
2022-10-18T05:34:32.333Z,3.50
2022-10-18T05:37:18.666Z,3.40
2022-10-18T05:40:04.551Z,3.50
2022-10-18T05:42:53.458Z,3.22
2022-10-18T05:45:39.990Z,3.80
2022-10-18T05:48:27.306Z,3.30
2022-10-18T05:51:13.053Z,3.80
2022-10-18T05:53:58.929Z,3.20
2022-10-18T05:56:44.538Z,3.38
2022-10-18T05:59:29.929Z,3.90
2022-10-18T06:02:15.654Z,3.63
2022-10-18T06:05:01.070Z,3.85
2022-10-18T06:07:46.635Z,3.88
2022-10-18T06:10:32.390Z,3.67
2022-10-18T06:13:17.733Z,3.75
2022-10-18T06:16:03.143Z,3.83
2022-10-18T06:18:54.936Z,4.10
2022-10-18T06:21:40.202Z,3.88
2022-10-18T06:24:26.757Z,3.95
2022-10-18T06:27:12.422Z,3.83
2022-10-18T06:29:58.045Z,3.90
2022-10-18T06:32:43.549Z,4.30
2022-10-18T06:35:29.052Z,3.80
2022-10-18T06:38:14.386Z,3.95
2022-10-18T06:41:00.543Z,4.03
2022-10-18T06:43:54.156Z,3.35
2022-10-18T06:46:41.271Z,4.05
2022-10-18T06:49:26.977Z,3.83
2022-10-18T06:52:12.335Z,3.42
2022-10-18T06:54:58.055Z,3.70
2022-10-18T06:57:43.700Z,3.40
2022-10-18T07:00:29.419Z,3.40
2022-10-18T07:03:15.069Z,3.83
2022-10-18T07:06:02.612Z,3.38
2022-10-18T07:08:49.898Z,3.38
2022-10-18T07:11:35.579Z,3.90
2022-10-18T07:14:20.922Z,3.70
2022-10-18T07:17:06.534Z,3.70
2022-10-18T07:19:51.943Z,4.18
2022-10-18T07:22:38.295Z,4.00
2022-10-18T07:25:25.869Z,3.50
2022-10-18T07:28:13.644Z,3.72
2022-10-18T07:31:06.166Z,3.00
2022-10-18T07:33:52.198Z,3.17
2022-10-18T07:36:38.086Z,3.10
2022-10-18T07:39:23.600Z,3.03
2022-10-18T07:42:09.192Z,3.42
2022-10-18T07:44:54.741Z,3.13
2022-10-18T07:47:40.524Z,3.35
2022-10-18T07:50:26.356Z,3.17
2022-10-18T07:53:11.873Z,3.53
2022-10-18T07:56:08.752Z,3.58
2022-10-18T07:58:56.379Z,3.50
2022-10-18T08:01:41.772Z,3.50
2022-10-18T08:04:27.328Z,3.65
2022-10-18T08:07:12.881Z,3.67
2022-10-18T08:09:58.601Z,3.60
2022-10-18T08:12:44.118Z,3.78
2022-10-18T08:15:29.928Z,3.72
2022-10-18T08:18:15.584Z,3.78
2022-10-18T08:21:02.341Z,3.80
2022-10-18T08:23:49.179Z,4.00
2022-10-18T08:26:34.826Z,3.67
2022-10-18T08:29:25.884Z,3.70
2022-10-18T08:32:14.087Z,3.83
2022-10-18T08:34:59.562Z,3.83
2022-10-18T08:37:45.378Z,3.85
2022-10-18T08:40:33.825Z,4.18
2022-10-18T08:46:21.809Z,3.67
2022-10-18T08:49:15.834Z,3.45
2022-10-18T08:52:01.443Z,4.22
2022-10-18T08:54:54.537Z,3.70
2022-10-18T08:57:39.943Z,4.13
2022-10-18T09:00:30.619Z,3.40
2022-10-18T09:03:36.426Z,3.88
2022-10-18T09:06:39.589Z,3.80
2022-10-18T09:09:55.080Z,3.47
2022-10-18T09:13:05.064Z,3.70
2022-10-18T09:16:02.987Z,3.40
2022-10-18T09:19:19.479Z,3.50
2022-10-18T09:22:15.482Z,3.03
2022-10-18T09:25:17.231Z,3.53
2022-10-18T09:28:15.897Z,3.58
2022-10-18T09:31:20.433Z,3.83
2022-10-18T09:34:26.573Z,3.30
2022-10-18T09:37:16.070Z,3.10
2022-10-18T09:40:21.464Z,3.03
2022-10-18T09:43:15.379Z,2.95
2022-10-18T09:46:03.062Z,2.35
2022-10-18T09:48:54.529Z,3.15
2022-10-18T09:51:42.174Z,3.88
2022-10-18T09:54:37.106Z,3.50
2022-10-18T09:57:27.695Z,3.72
2022-10-18T10:00:22.553Z,3.53
2022-10-18T10:03:12.887Z,3.42
2022-10-18T10:06:14.919Z,3.50
2022-10-18T10:09:26.425Z,3.85
2022-10-18T10:12:39.972Z,3.85
2022-10-18T10:15:31.230Z,3.08
2022-10-18T10:18:24.830Z,3.35
2022-10-18T10:21:15.684Z,3.40
2022-10-18T10:24:01.084Z,3.13
2022-10-18T10:26:47.490Z,2.83
2022-10-18T10:29:56.679Z,2.75
2022-10-18T10:32:47.800Z,2.45
2022-10-18T10:35:54.460Z,2.92
2022-10-18T10:38:40.259Z,2.80
2022-10-18T10:41:25.603Z,2.90
2022-10-18T10:44:17.458Z,2.92
2022-10-18T10:47:03.551Z,2.58
2022-10-18T10:49:49.166Z,2.80
2022-10-18T10:52:34.499Z,2.30
2022-10-18T10:55:34.824Z,2.63
2022-10-18T10:58:22.387Z,2.28
2022-10-18T11:01:29.026Z,2.35
2022-10-18T11:04:28.271Z,2.50
2022-10-18T11:07:35.986Z,2.38
2022-10-18T11:10:28.529Z,2.28
2022-10-18T11:13:24.011Z,2.47
2022-10-18T11:16:28.355Z,2.22
2022-10-18T11:19:59.257Z,2.55
2022-10-18T11:22:57.041Z,2.42
2022-10-18T11:25:51.850Z,2.58
2022-10-18T11:28:56.277Z,2.10
2022-10-18T11:32:13.277Z,2.35
2022-10-18T11:35:27.064Z,2.38
2022-10-18T11:38:12.633Z,3.08
2022-10-18T11:41:23.785Z,2.03
2022-10-18T11:44:28.617Z,2.30
2022-10-18T11:47:37.130Z,2.17
2022-10-18T11:50:45.591Z,2.17
2022-10-18T11:53:42.185Z,1.98
2022-10-18T11:56:46.107Z,1.85
2022-10-18T11:59:49.473Z,2.40
2022-10-18T12:02:59.897Z,2.05
2022-10-18T12:05:47.188Z,1.90
2022-10-18T12:09:02.082Z,1.70
2022-10-18T12:11:57.373Z,1.20
2022-10-18T12:14:52.607Z,1.80
2022-10-18T12:17:47.516Z,1.20
2022-10-18T12:20:43.057Z,1.30
2022-10-18T12:23:42.374Z,2.10
2022-10-18T12:26:29.023Z,1.20
2022-10-18T12:29:20.372Z,1.30
2022-10-18T12:32:13.371Z,1.27
2022-10-18T12:35:06.915Z,1.27
2022-10-18T12:38:19.883Z,1.13
2022-10-18T12:41:06.285Z,1.02
2022-10-18T12:43:54.594Z,1.20
2022-10-18T12:46:52.050Z,1.10
2022-10-18T12:49:41.447Z,1.10
2022-10-18T12:52:34.085Z,0.98
2022-10-18T12:55:19.594Z,1.20
2022-10-18T12:58:16.142Z,0.90
2022-10-18T13:01:04.816Z,0.90
2022-10-18T13:03:56.997Z,0.90
2022-10-18T13:06:57.689Z,1.00
2022-10-18T13:10:15.283Z,1.05
2022-10-18T13:13:39.331Z,1.85
2022-10-18T13:16:43.714Z,1.30
2022-10-18T13:19:32.343Z,1.30
2022-10-18T13:22:38.602Z,1.00
2022-10-18T13:25:49.135Z,1.20
2022-10-18T13:28:51.760Z,1.30
2022-10-18T13:31:42.781Z,1.27
2022-10-18T13:34:33.326Z,1.42
2022-10-18T13:37:24.488Z,1.77
2022-10-18T13:40:25.296Z,1.55
2022-10-18T13:43:57.087Z,1.20
2022-10-18T13:46:42.848Z,1.27
2022-10-18T13:49:38.687Z,1.30
2022-10-18T13:53:29.940Z,1.25
2022-10-18T13:56:49.944Z,1.33
2022-10-18T13:59:48.391Z,1.27
2022-10-18T14:02:53.387Z,1.17
2022-10-18T14:06:22.623Z,1.35
2022-10-18T14:09:26.443Z,1.58
2022-10-18T14:12:41.700Z,1.30
2022-10-18T14:15:35.677Z,1.30
2022-10-18T14:18:30.048Z,1.27
2022-10-18T14:21:30.289Z,1.23
2022-10-18T14:24:24.397Z,1.30
2022-10-18T14:27:12.999Z,1.30
2022-10-18T14:30:13.309Z,1.20
2022-10-18T14:32:59.666Z,1.20
2022-10-18T14:35:58.196Z,1.13
2022-10-18T14:38:47.165Z,1.50
2022-10-18T14:41:38.625Z,1.30
2022-10-18T14:44:29.937Z,1.38
2022-10-18T14:47:20.054Z,1.08
2022-10-18T14:50:21.374Z,1.40
2022-10-18T14:53:09.644Z,1.48
2022-10-18T14:55:57.802Z,1.40
2022-10-18T14:58:43.388Z,1.20
2022-10-18T15:01:32.649Z,1.55
2022-10-18T15:04:18.619Z,1.30
2022-10-18T15:07:07.332Z,1.50
2022-10-18T15:09:53.574Z,1.50
2022-10-18T15:13:04.386Z,1.27
2022-10-18T15:15:46.946Z,1.30
2022-10-18T15:18:32.684Z,1.20
2022-10-18T15:21:24.023Z,1.60
2022-10-18T15:24:34.666Z,1.50
2022-10-18T15:27:29.541Z,1.20
2022-10-18T15:30:24.835Z,1.27
2022-10-18T15:33:22.477Z,1.48
2022-10-18T15:36:17.474Z,1.30
2022-10-18T15:39:19.646Z,1.30
2022-10-18T15:42:05.596Z,1.40
2022-10-18T15:44:51.708Z,1.48
2022-10-18T15:47:37.365Z,1.50
2022-10-18T15:50:42.679Z,1.48
2022-10-18T15:56:34.539Z,1.20
2022-10-18T15:59:29.632Z,1.77
2022-10-18T16:02:15.655Z,2.15
2022-10-18T16:05:02.977Z,2.03
2022-10-18T16:07:54.961Z,2.05
2022-10-18T16:10:40.656Z,2.50
2022-10-18T16:13:26.989Z,2.45
2022-10-18T16:16:18.881Z,2.38
2022-10-18T16:19:04.555Z,2.67
2022-10-18T16:21:51.741Z,2.17
2022-10-18T16:24:37.264Z,2.40
2022-10-18T16:27:23.422Z,3.35
2022-10-18T16:30:18.524Z,2.60
2022-10-18T16:33:04.140Z,3.00
2022-10-18T16:35:50.043Z,2.50
2022-10-18T16:38:36.980Z,2.70
2022-10-18T16:41:23.406Z,2.50
2022-10-18T16:44:08.696Z,2.72
2022-10-18T16:46:56.259Z,2.40
2022-10-18T16:49:41.734Z,2.83
2022-10-18T16:52:27.410Z,2.30
2022-10-18T16:55:21.039Z,2.95
2022-10-18T16:58:07.654Z,2.13
2022-10-18T17:00:53.629Z,2.00
2022-10-18T17:03:38.857Z,2.15
2022-10-18T17:06:29.657Z,2.28
2022-10-18T17:09:15.990Z,2.53
2022-10-18T17:12:01.577Z,3.50
2022-10-18T17:14:47.213Z,2.50
2022-10-18T17:17:33.486Z,2.22
2022-10-18T17:20:26.392Z,2.30
2022-10-18T17:23:12.237Z,2.53
2022-10-18T17:26:08.527Z,2.17
2022-10-18T17:29:04.425Z,2.42
2022-10-18T17:31:49.995Z,2.50
2022-10-18T17:34:36.176Z,2.35
2022-10-18T17:37:22.652Z,2.15
2022-10-18T17:40:09.089Z,2.53
2022-10-18T17:42:54.980Z,2.78
2022-10-18T17:45:53.679Z,2.60
2022-10-18T17:48:39.312Z,2.85
2022-10-18T17:51:25.036Z,2.30
2022-10-18T17:54:10.432Z,2.60
2022-10-18T17:56:56.586Z,2.58
2022-10-18T17:59:42.277Z,2.70
2022-10-18T18:02:27.655Z,2.53
2022-10-18T18:05:13.503Z,2.50
2022-10-18T18:08:03.571Z,2.85
2022-10-18T18:10:54.565Z,2.78
2022-10-18T18:13:39.653Z,3.00
2022-10-18T18:16:28.652Z,2.63
2022-10-18T18:19:14.615Z,3.20
2022-10-18T18:21:59.793Z,2.80
2022-10-18T18:24:45.507Z,2.95
2022-10-18T18:27:30.908Z,3.05
2022-10-18T18:30:18.085Z,3.22
2022-10-18T18:33:03.939Z,3.40
2022-10-18T18:35:57.242Z,3.10
2022-10-18T18:38:42.893Z,2.92
2022-10-18T18:41:29.072Z,3.45
2022-10-18T18:44:14.463Z,3.10
2022-10-18T18:47:00.820Z,2.97
2022-10-18T18:49:46.400Z,3.13
2022-10-18T18:52:32.267Z,3.17
2022-10-18T18:55:17.918Z,3.22
2022-10-18T18:58:03.393Z,2.90
2022-10-18T19:00:50.025Z,3.20
2022-10-18T19:03:35.967Z,3.50
2022-10-18T19:06:26.555Z,3.10
2022-10-18T19:09:26.342Z,3.28
2022-10-18T19:12:11.543Z,3.38
2022-10-18T19:14:56.878Z,3.40
2022-10-18T19:17:42.958Z,3.25
2022-10-18T19:20:28.624Z,3.60
2022-10-18T19:23:14.825Z,3.25
2022-10-18T19:26:46.002Z,3.92
2022-10-18T19:29:35.136Z,3.38
2022-10-18T19:32:20.500Z,3.65
2022-10-18T19:35:06.194Z,3.78
2022-10-18T19:37:52.376Z,4.50
2022-10-18T19:40:37.898Z,4.05
2022-10-18T19:43:23.891Z,4.00
2022-10-18T19:46:09.372Z,4.10
2022-10-18T19:48:55.032Z,4.78
2022-10-18T19:51:41.140Z,4.38
2022-10-18T19:54:27.015Z,4.60
2022-10-18T19:57:12.482Z,4.60
2022-10-18T19:59:59.148Z,5.18
2022-10-18T20:02:46.263Z,4.78
2022-10-18T20:05:32.102Z,4.93
2022-10-18T20:08:17.630Z,4.95
2022-10-18T20:11:06.044Z,4.90
2022-10-18T20:13:52.460Z,5.90
2022-10-18T20:16:37.930Z,5.70
2022-10-18T20:19:23.432Z,5.30
2022-10-18T20:22:08.955Z,5.40
2022-10-18T20:24:56.038Z,5.43
2022-10-18T20:27:41.609Z,5.10
2022-10-18T20:30:26.699Z,5.38
2022-10-18T20:33:12.496Z,5.95
2022-10-18T20:36:13.795Z,6.15
2022-10-18T20:38:59.374Z,5.07
2022-10-18T20:41:44.663Z,5.72
2022-10-18T20:44:32.021Z,5.35
2022-10-18T20:47:17.630Z,5.13
2022-10-18T20:50:03.273Z,5.75
2022-10-18T20:52:51.197Z,5.45
2022-10-18T20:55:38.818Z,6.40
2022-10-18T20:58:24.316Z,5.72
2022-10-18T21:01:38.140Z,6.95
2022-10-18T21:04:23.663Z,8.20
2022-10-18T21:07:09.567Z,8.85
2022-10-18T21:09:55.061Z,9.57
2022-10-18T21:12:40.624Z,8.60
2022-10-18T21:15:26.048Z,9.55
2022-10-18T21:18:11.913Z,8.32
2022-10-18T21:21:17.499Z,8.40
2022-10-18T21:24:06.871Z,7.53
2022-10-18T21:26:53.693Z,6.53
2022-10-18T21:29:40.152Z,6.80
2022-10-18T21:32:25.531Z,6.90
2022-10-18T21:35:11.509Z,8.02
2022-10-18T21:37:57.179Z,7.25
2022-10-18T21:40:45.583Z,7.97
2022-10-18T21:43:30.918Z,8.73
2022-10-18T21:46:17.846Z,10.23
2022-10-18T21:49:03.667Z,10.15
2022-10-18T21:51:49.082Z,9.18
2022-10-18T21:54:34.623Z,9.68
2022-10-18T21:57:20.174Z,10.73
2022-10-18T22:00:07.023Z,8.70
2022-10-18T22:03:12.826Z,10.90
2022-10-18T22:06:01.753Z,8.40
2022-10-18T22:08:59.082Z,8.23
2022-10-18T22:11:50.835Z,8.27
2022-10-18T22:14:36.310Z,7.57
2022-10-18T22:17:21.704Z,10.05
2022-10-18T22:20:07.815Z,8.65
2022-10-18T22:22:54.201Z,7.70
2022-10-18T22:25:39.592Z,8.50
2022-10-18T22:28:25.206Z,5.97
2022-10-18T22:31:31.278Z,6.00
2022-10-18T22:34:27.401Z,6.35
2022-10-18T22:37:13.163Z,7.25
2022-10-18T22:39:58.631Z,8.77
2022-10-18T22:42:44.232Z,7.63
2022-10-18T22:45:29.740Z,7.82
2022-10-18T22:48:15.399Z,6.95
2022-10-18T22:51:01.539Z,6.10
2022-10-18T22:53:47.080Z,5.45
2022-10-18T22:56:32.813Z,4.60
2022-10-18T22:59:18.290Z,5.57
2022-10-18T23:02:03.999Z,5.53
2022-10-18T23:04:49.162Z,5.05
2022-10-18T23:07:34.863Z,5.35
2022-10-18T23:10:20.304Z,6.03
2022-10-18T23:13:06.774Z,6.32
2022-10-18T23:15:52.855Z,6.22
2022-10-18T23:21:24.817Z,6.57
2022-10-18T23:24:10.561Z,6.22
2022-10-18T23:26:56.003Z,5.32
2022-10-18T23:29:41.676Z,4.80
2022-10-18T23:32:28.433Z,4.80
2022-10-18T23:35:13.823Z,3.80
2022-10-18T23:37:59.539Z,4.10
2022-10-18T23:40:45.047Z,4.18
2022-10-18T23:43:30.691Z,4.07
2022-10-18T23:46:17.892Z,4.15
2022-10-18T23:49:03.491Z,3.60
2022-10-18T23:51:49.273Z,3.10
2022-10-18T23:54:35.187Z,3.00
2022-10-18T23:57:20.574Z,3.05
